Depesze METAR lotnisk w Polsce

METAR – format kodowanego raportu o pogodzie używany w meteorologii lotniczej i prognozie pogody. METAR jest akronimem od ang. Meteorological Aerodrome Report. Typowy METAR zawiera informację o temperaturze, ciśnieniu, temperaturze punktu rosy, sile i kierunku wiatru, opadzie, pokrywie chmur, wysokości podstawy chmur, widzialności, lecz może zawierać też inne informacje (np. stan dróg startowych).

Warszawa-Okęcie (EPWA)

METAR = EPWA 171230Z 14008KT 100V170 9999 FEW048 27/15 Q1017 NOSIG

STACJA......... EPWA - Warszawa-Okęcie (WAW)
POMIAR......... Fri Aug 17, 14:30 CEST
WIATR.......... południowo wschodni (SE) z prędkością 15 km/h
WIDZIALNOŚĆ.... powyżej 10 kilometrów
CHMURY......... zachmurzenie niewielkie (1/8-2/8)
TEMPERATURA.... 27°C
T.PUNKTU ROSY.. 15°C
WILGOTNOŚĆ..... 48%
INDEX GORĄCA... 27°C
CIŚNIENIE...... 1017 hPa
CIŚN.BEZWZGL... 1004 hPa
PROGNOZA....... bez nagłych zmian w ciągu 2h

Sprawdź też: Prognoza pogody Warszawa

Warszawa-Modlin (EPMO)

METAR = EPMO 171230Z 12008KT 080V150 9999 FEW045TCU 27/15 Q1017 =

STACJA......... EPMO - Warszawa-Modlin (WMI)
POMIAR......... Fri Aug 17, 14:30 CEST
WIATR.......... wschodni południowo-wschodni (ESE) z prędkością 15 km/h
WIDZIALNOŚĆ.... powyżej 10 kilometrów
CHMURY......... zachmurzenie niewielkie (1/8-2/8)
TEMPERATURA.... 27°C
T.PUNKTU ROSY.. 15°C
WILGOTNOŚĆ..... 48%
INDEX GORĄCA... 27°C
CIŚNIENIE...... 1017 hPa
CIŚN.BEZWZGL... 1005 hPa

Sprawdź też: Prognoza pogody Nowy Dwór Mazowiecki

Kraków-Balice (EPKK)

METAR = EPKK 171230Z 06007KT 360V120 9999 FEW038 26/18 Q1016

STACJA......... EPKK - Kraków-Balice (KRK)
POMIAR......... Fri Aug 17, 14:30 CEST
WIATR.......... wschodni północno-wschodni (ENE) z prędkością 13 km/h
WIDZIALNOŚĆ.... powyżej 10 kilometrów
CHMURY......... zachmurzenie niewielkie (1/8-2/8)
TEMPERATURA.... 26°C
T.PUNKTU ROSY.. 18°C
WILGOTNOŚĆ..... 61%
CIŚNIENIE...... 1016 hPa
CIŚN.BEZWZGL... 989 hPa

Sprawdź też: Prognoza pogody Kraków

Łódź-Lublinek (EPLL)

METAR = EPLL 171230Z 10007KT 070V140 9999 SCT048 27/16 Q1017

STACJA......... EPLL - Łódź-Lublinek (LCJ)
POMIAR......... Fri Aug 17, 14:30 CEST
WIATR.......... wschodni (E) z prędkością 13 km/h
WIDZIALNOŚĆ.... powyżej 10 kilometrów
CHMURY......... zachmurzenie małe (3/8-4/8)
TEMPERATURA.... 27°C
T.PUNKTU ROSY.. 16°C
WILGOTNOŚĆ..... 51%
INDEX GORĄCA... 28°C
CIŚNIENIE...... 1017 hPa
CIŚN.BEZWZGL... 996 hPa

Sprawdź też: Prognoza pogody Łódź

Wrocław-Strachowice (EPWR)

METAR = EPWR 171230Z 18006KT 130V200 CAVOK 29/10 Q1015

STACJA......... EPWR - Wrocław-Strachowice (WRO)
POMIAR......... Fri Aug 17, 14:30 CEST
WIATR.......... południowy (S) z prędkością 11 km/h
WIDZIALNOŚĆ.... powyżej 10 kilometrów
CHMURY......... bezchmurne niebo
TEMPERATURA.... 29°C
T.PUNKTU ROSY.. 10°C
WILGOTNOŚĆ..... 31%
CIŚNIENIE...... 1015 hPa
CIŚN.BEZWZGL... 1001 hPa

Sprawdź też: Prognoza pogody Wrocław

Katowice-Pyrzowice (EPKT)

METAR = EPKT 171230Z VRB04KT CAVOK 27/13 Q1016

STACJA......... EPKT - Katowice-Pyrzowice (KTW)
POMIAR......... Fri Aug 17, 14:30 CEST
WIATR.......... zmienny z prędkością 7 km/h
WIDZIALNOŚĆ.... powyżej 10 kilometrów
CHMURY......... bezchmurne niebo
TEMPERATURA.... 27°C
T.PUNKTU ROSY.. 13°C
WILGOTNOŚĆ..... 42%
INDEX GORĄCA... 27°C
CIŚNIENIE...... 1016 hPa
CIŚN.BEZWZGL... 982 hPa

Sprawdź też: Prognoza pogody Katowice

Gdańsk (EPGD)

METAR = EPGD 171230Z 15011KT 120V190 CAVOK 26/12 Q1017

STACJA......... EPGD - Gdańsk im. Lecha Wałęsy (GDN)
POMIAR......... Fri Aug 17, 14:30 CEST
WIATR.......... południowo południowo-wschodni (SSE) z prędkością 20 km/h
WIDZIALNOŚĆ.... powyżej 10 kilometrów
CHMURY......... bezchmurne niebo
TEMPERATURA.... 26°C
T.PUNKTU ROSY.. 12°C
WILGOTNOŚĆ..... 42%
CIŚNIENIE...... 1017 hPa
CIŚN.BEZWZGL... 1000 hPa

Sprawdź też: Prognoza pogody Gdańsk

Poznań-Ławica (EPPO)

METAR = EPPO 171230Z 13009KT 080V160 9999 FEW042 29/13 Q1015

STACJA......... EPPO - Poznań-Ławica (POZ)
POMIAR......... Fri Aug 17, 14:30 CEST
WIATR.......... południowo wschodni (SE) z prędkością 17 km/h
WIDZIALNOŚĆ.... powyżej 10 kilometrów
CHMURY......... zachmurzenie niewielkie (1/8-2/8)
TEMPERATURA.... 29°C
T.PUNKTU ROSY.. 13°C
WILGOTNOŚĆ..... 37%
CIŚNIENIE...... 1015 hPa
CIŚN.BEZWZGL... 1004 hPa

Sprawdź też: Prognoza pogody Poznań

Rzeszów-Jasionka (EPRZ)

METAR = EPRZ 171230Z 12010KT 9999 SCT033TCU 24/17 Q1017

STACJA......... EPRZ - Rzeszów-Jasionka (RZE)
POMIAR......... Fri Aug 17, 14:30 CEST
WIATR.......... wschodni południowo-wschodni (ESE) z prędkością 19 km/h
WIDZIALNOŚĆ.... powyżej 10 kilometrów
CHMURY......... zachmurzenie małe (3/8-4/8)
TEMPERATURA.... 24°C
T.PUNKTU ROSY.. 17°C
WILGOTNOŚĆ..... 65%
CIŚNIENIE...... 1017 hPa
CIŚN.BEZWZGL... 993 hPa

Sprawdź też: Prognoza pogody Rzeszów

Szczecin-Goleniów (EPSC)

METAR = EPSC 171230Z 16006KT 120V250 CAVOK 30/12 Q1014

STACJA......... EPSC - Szczecin-Goleniów (SZZ)
POMIAR......... Fri Aug 17, 14:30 CEST
WIATR.......... południowo południowo-wschodni (SSE) z prędkością 11 km/h
WIDZIALNOŚĆ.... powyżej 10 kilometrów
CHMURY......... bezchmurne niebo
TEMPERATURA.... 30°C
T.PUNKTU ROSY.. 12°C
WILGOTNOŚĆ..... 33%
CIŚNIENIE...... 1014 hPa
CIŚN.BEZWZGL... 1009 hPa

Sprawdź też: Prognoza pogody Szczecin

Lublin-Świdnik (EPLB)

METAR = EPLB 171230Z 11008KT 060V160 CAVOK 27/15 Q1018 =

STACJA......... EPLB - Lublin-Świdnik (LUZ)
POMIAR......... Fri Aug 17, 14:30 CEST
WIATR.......... wschodni południowo-wschodni (ESE) z prędkością 15 km/h
WIDZIALNOŚĆ.... powyżej 10 kilometrów
CHMURY......... bezchmurne niebo
TEMPERATURA.... 27°C
T.PUNKTU ROSY.. 15°C
WILGOTNOŚĆ..... 48%
INDEX GORĄCA... 27°C
CIŚNIENIE...... 1018 hPa
CIŚN.BEZWZGL... 995 hPa

Sprawdź też: Prognoza pogody Lublin

Bydgoszcz-Szwederowo (EPBY)

METAR = EPBY 171230Z 14007KT 110V180 CAVOK 28/13 Q1016 =

STACJA......... EPBY - Bydgoszcz-Szwederowo (BZG)
POMIAR......... Fri Aug 17, 14:30 CEST
WIATR.......... południowo wschodni (SE) z prędkością 13 km/h
WIDZIALNOŚĆ.... powyżej 10 kilometrów
CHMURY......... bezchmurne niebo
TEMPERATURA.... 28°C
T.PUNKTU ROSY.. 13°C
WILGOTNOŚĆ..... 40%
INDEX GORĄCA... 27°C
CIŚNIENIE...... 1016 hPa
CIŚN.BEZWZGL... 1008 hPa

Sprawdź też: Prognoza pogody Bydgoszcz

Zielona Góra-Babimost (EPZG)

METAR = EPZG 171230Z VRB02KT CAVOK 30/11 Q1015 =

STACJA......... EPZG - Zielona Góra-Babimost (IEG)
POMIAR......... Fri Aug 17, 14:30 CEST
WIATR.......... zmienny z prędkością 4 km/h
WIDZIALNOŚĆ.... powyżej 10 kilometrów
CHMURY......... bezchmurne niebo
TEMPERATURA.... 30°C
T.PUNKTU ROSY.. 11°C
WILGOTNOŚĆ..... 31%
CIŚNIENIE...... 1015 hPa
CIŚN.BEZWZGL... 1008 hPa

Sprawdź też: Prognoza pogody Zielona Góra

Szymany Olsztyn-Mazury (EPSY)

METAR = EPSY 171230Z 09005KT 040V150 9999 SCT043 24/15 Q1018=

STACJA......... EPSY - Olsztyn-Mazury (SZY)
POMIAR......... Fri Aug 17, 14:30 CEST
WIATR.......... wschodni (E) z prędkością 9 km/h
WIDZIALNOŚĆ.... powyżej 10 kilometrów
CHMURY......... zachmurzenie małe (3/8-4/8)
TEMPERATURA.... 24°C
T.PUNKTU ROSY.. 15°C
WILGOTNOŚĆ..... 57%
CIŚNIENIE...... 1018 hPa
CIŚN.BEZWZGL... 1002 hPa

Sprawdź też: Prognoza pogody Olsztyn